Terminal Aerodrome Forecast
Issued by NWS Boston, MA

Home | Current Version | Previous Version | Text Only | Print | Product List | Glossary On
Versions: 1 2 3 4 5 6 7 8 9 10 11 12 13 14 15 16 17 18 19 20 21 22 23
000
FTUS41 KBOX 272321
TAFORH
TAF
KORH 272321Z 2800/2824 22004KT P6SM SCT200
     FM280400 23007KT P6SM BKN080
     FM281500 26008KT 5SM -SHRA OVC060
     FM281600 26008KT P6SM OVC060=

USA.gov is the U.S. government's official web portal to all federal, state and local government web resources and services.